• Join FlightAware (Why Join?)
  • Login
  • US Flag 
08:09AM EDT


 

Airport Tracker/Info


-or-


 

Live Flight TrackerFlight Track Log ✈ SWA183 ✈ 21-Jun-2013 ✈ KMSY - KTPA

Flight Track Log - Related Links

Times and Time Zones

All times are in EDT time to prevent confusion due to time zone crossing. See the SWA183 flight status page for this flight to view local times or setup timezone preferences in your user account.

Time Position Orientation Groundspeed Altitude Reporting Facility
EDT Latitude Longitude Course Direction KTS MPH feet Rate Location/Type
12:30PM 30.0714 -90.2283 13° North 209 241 3,700  Level Houston Center
12:31PM 30.1061 -90.2200 12° North 194 223 5,300 2,340 Climbing Houston Center
12:32PM 30.1081 -90.1467 88° East 248 285 7,600 2,640 Climbing Houston Center
12:33PM 30.0914 -90.0581 102° East 276 318 10,800 3,000 Climbing Houston Center
12:34PM 30.0714 -89.9550 103° East 323 372 13,800 3,180 Climbing Houston Center
12:35PM 30.0553 -89.8192 98° East 375 432 17,500 3,000 Climbing Houston Center
12:36PM 30.0861 -89.7056 73° East 379 436 20,100 2,460 Climbing Houston Center
12:37PM 30.1111 -89.5842 77° East 395 455 22,600 2,280 Climbing Houston Center
12:38PM 30.1353 -89.4597 77° East 403 464 24,900 1,920 Climbing Houston Center
12:39PM 30.1692 -89.3322 73° East 415 478 26,600 1,920 Climbing Houston Center
12:40PM 30.2111 -89.1669 74° East 446 513 28,900 1,920 Climbing Houston Center
12:41PM 30.2464 -89.0269 74° East 454 522 30,600 1,620 Climbing Houston Center
12:42PM 30.2842 -88.8797 73° East 469 540 32,300 1,800 Climbing Houston Center
12:43PM 30.3208 -88.7342 74° East 473 544 34,400 1,800 Climbing Houston Center
12:44PM 30.3578 -88.5889 74° East 471 542 36,100 1,860 Climbing Houston Center
12:45PM 30.4011 -88.4161 74° East 468 539 38,300 1,500 Climbing Houston Center
12:46PM 30.4369 -88.2744 74° East 465 535 39,300 960 Climbing Houston Center
12:47PM 30.4733 -88.1306 74° East 467 537 40,300 780 Climbing Houston Center
12:48PM 30.5086 -87.9881 74° East 465 535 41,000 300 Climbing Houston Center
12:49PM 30.5431 -87.8467 74° East 462 532 41,000  Level Houston Center
12:50PM 30.5481 -87.6703 88° East 462 532 41,000  Level Houston Center
12:51PM 30.5508 -87.5500 88° East 446 513 41,000  Level Jacksonville Center
12:52PM 30.5522 -87.3983 89° East 457 526 41,000  Level Jacksonville Center
12:53PM 30.5531 -87.2489 90° East 463 533 41,000  Level Jacksonville Center
12:54PM 30.5583 -87.0994 88° East 456 525 41,000  Level Jacksonville Center
12:55PM 30.5572 -86.9378 90° East 456 525 41,000  Level Jacksonville Center
12:56PM 30.5597 -86.7883 89° East 456 525 41,000  Level Jacksonville Center
12:57PM 30.5600 -86.6414 90° East 456 525 41,000  Level Jacksonville Center
12:58PM 30.5622 -86.4967 89° East 456 525 41,000  Level Jacksonville Center
12:59PM 30.5619 -86.3494 90° East 456 525 41,000  Level Jacksonville Center
01:00PM 30.5617 -86.2000 90° East 456 525 41,000  Level Jacksonville Center
01:01PM 30.5633 -86.0553 89° East 456 525 41,000 -540 Level Jacksonville Center
01:02PM 30.5628 -85.9058 90° East 456 525 40,000 -960 Descending Jacksonville Center
01:03PM 30.5642 -85.7586 89° East 456 525 39,100 -540 Descending Jacksonville Center
01:04PM 30.5633 -85.6042 90° East 461 531 39,000 -60 Descending Jacksonville Center
01:05PM 30.5619 -85.4714 91° East 461 531 39,000 -420 Level Jacksonville Center
01:06PM 30.5628 -85.3194 90° East 461 531 38,200 -900 Descending Jacksonville Center
01:07PM 30.5614 -85.1722 91° East 461 531 37,200 -960 Descending Jacksonville Center
01:08PM 30.5639 -85.0203 89° East 461 531 36,300 -960 Descending Jacksonville Center
01:09PM 30.5664 -84.8686 89° East 461 531 35,300 -660 Descending Jacksonville Center
01:10PM 30.5667 -84.7142 90° East 467 537 35,000 -240 Descending Jacksonville Center
01:11PM 30.5731 -84.5597 87° East 467 537 34,900 -540 Descending Jacksonville Center
01:12PM 30.5497 -84.4194 101° East 467 537 34,000 -1,020 Descending Jacksonville Center
01:13PM 30.4442 -84.3408 147° Southeast 409 471 32,900 -1,080 Descending Jacksonville Center
01:14PM 30.3406 -84.2694 149° Southeast 420 483 31,900 -1,020 Descending Jacksonville Center
01:15PM 30.2347 -84.1933 148° Southeast 427 491 30,900 -1,080 Descending Jacksonville Center
01:16PM 30.1269 -84.1150 148° Southeast 427 491 29,800 -1,080 Descending Jacksonville Center
01:17PM 30.0253 -84.0442 149° Southeast 427 491 28,800 -900 Descending Jacksonville Center
01:18PM 29.9197 -83.9661 147° Southeast 427 491 28,100 -900 Descending Jacksonville Center
01:19PM 29.8094 -83.8883 149° Southeast 446 513 27,100 -600 Descending Jacksonville Center
01:20PM 29.6953 -83.8156 151° Southeast 459 528 27,000 -60 Descending Jacksonville Center
01:21PM 29.5850 -83.7475 152° Southeast 464 534 27,000  Level Jacksonville Center
01:22PM 29.4708 -83.6869 155° Southeast 451 519 27,000 -240 Level Jacksonville Center
01:23PM 29.3583 -83.6169 152° Southeast 445 512 26,600 -720 Descending Jacksonville Center
01:24PM 29.2503 -83.5447 150° Southeast 450 518 25,600 -1,080 Descending Jacksonville Center
01:25PM 29.1419 -83.4728 150° Southeast 450 518 24,500 -1,080 Descending Jacksonville Center
01:26PM 29.0400 -83.4056 150° Southeast 445 512 23,500 -1,260 Descending Jacksonville Center
01:27PM 28.9525 -83.3411 147° Southeast 434 499 22,100 -1,800 Descending Jacksonville Center
01:28PM 28.8631 -83.2672 144° Southeast 419 482 19,900 -2,100 Descending Jacksonville Center
01:31PM 28.6333 -83.1333 153° Southeast 380 437 15,300 -2,160 Descending Tampa TRACON
01:31PM 28.5500 -83.0833 152° Southeast 371 427 13,100 -2,280 Descending Tampa TRACON
01:32PM 28.4667 -83.0333 152° Southeast 353 406 11,300 -1,440 Descending Tampa TRACON
01:33PM 28.3833 -83.0000 161° South 311 358 10,300 -1,140 Descending Tampa TRACON
01:35PM 28.3000 -82.9667 161° South 286 329 8,800 -1,500 Descending Tampa TRACON
01:36PM 28.2167 -82.9500 170° South 282 325 7,000 -1,620 Descending Tampa TRACON
01:36PM 28.1667 -82.9333 164° South 281 323 5,900 -1,500 Descending Tampa TRACON
01:37PM 28.0833 -82.9000 161° South 275 316 4,500 -960 Descending Tampa TRACON
01:38PM 28.0167 -82.8667 156° South 262 302 4,000 -240 Descending Tampa TRACON
01:39PM 27.9500 -82.8500 168° South 238 274 4,000  Level Tampa TRACON
01:41PM 27.9000 -82.8000 139° Southeast 229 264 4,000 -240 Level Tampa TRACON
01:42PM 27.8667 -82.7500 127° Southeast 228 262 3,600 -600 Descending Tampa TRACON
01:43PM 27.8667 -82.6667 90° East 222 255 2,800 -600 Descending Tampa TRACON
01:44PM 27.8667 -82.6000 90° East 209 241 2,500 -540 Descending Tampa TRACON
01:45PM 27.9000 -82.5500 53° Northeast 179 206 1,800 -960 Descending Tampa TRACON
01:46PM 27.9333 -82.5500 360° North 146 168 600 -1,200 Descending Tampa TRACON
01:47PM 27.9755 -82.5332 354° North  Level Estimated
01:54PM 27.9755 -82.5332 161° South  Level Estimated
01:55PM 27.9755 -82.5332 161° South  Level Estimated
01:56PM 27.9755 -82.5332 161° South  Level Estimated